createdAt,value
2023-02-22T00:01:51.005Z,100968.59
2023-02-22T00:04:21.269Z,100966.81
2023-02-22T00:06:50.800Z,100965.94
2023-02-22T00:09:21.353Z,100958.84
2023-02-22T00:11:50.334Z,100959.72
2023-02-22T00:14:20.268Z,100959.72
2023-02-22T00:16:48.184Z,100966.75
2023-02-22T00:19:15.804Z,100956.13
2023-02-22T00:21:44.814Z,100961.41
2023-02-22T00:24:23.115Z,100966.66
2023-02-22T00:26:55.520Z,100962.25
2023-02-22T00:29:24.331Z,100964.88
2023-02-22T00:31:52.221Z,100963.06
2023-02-22T00:34:19.994Z,100956.91
2023-02-22T00:36:47.816Z,100965.69
2023-02-22T00:39:15.518Z,100959.50
2023-02-22T00:41:43.337Z,100961.25
2023-02-22T00:44:12.330Z,100959.47
2023-02-22T00:46:40.465Z,100953.28
2023-02-22T00:49:08.237Z,100954.16
2023-02-22T00:51:35.919Z,100952.38
2023-02-22T00:54:03.717Z,100947.06
2023-02-22T00:56:31.535Z,100955.84
2023-02-22T00:59:00.854Z,100947.00
2023-02-22T01:01:29.991Z,100954.94
2023-02-22T01:03:57.600Z,100953.19
2023-02-22T01:06:25.308Z,100945.22
2023-02-22T01:08:52.995Z,100946.94
2023-02-22T01:11:22.326Z,100945.16
2023-02-22T01:13:49.910Z,100945.16
2023-02-22T01:16:17.588Z,100946.00
2023-02-22T01:18:46.696Z,100942.47
2023-02-22T01:21:15.062Z,100943.34
2023-02-22T01:23:45.411Z,100940.69
2023-02-22T01:26:13.444Z,100939.75
2023-02-22T01:28:41.042Z,100935.34
2023-02-22T01:31:08.745Z,100936.19
2023-02-22T01:33:36.347Z,100930.00
2023-02-22T01:36:11.390Z,100933.53
2023-02-22T01:38:39.555Z,100930.88
2023-02-22T01:41:07.401Z,100926.44
2023-02-22T01:43:35.489Z,100936.13
2023-02-22T01:46:04.491Z,100931.69
2023-02-22T01:48:40.986Z,100929.91
2023-02-22T01:51:13.588Z,100927.28
2023-02-22T01:53:48.134Z,100926.34
2023-02-22T01:56:17.043Z,100937.81
2023-02-22T01:58:51.756Z,100926.34
2023-02-22T02:01:23.049Z,100933.31
2023-02-22T02:03:53.024Z,100935.97
2023-02-22T02:06:22.191Z,100928.03
2023-02-22T02:08:56.387Z,100928.88
2023-02-22T02:11:26.490Z,100935.03
2023-02-22T02:13:57.579Z,100927.97
2023-02-22T02:16:28.144Z,100921.78
2023-02-22T02:18:55.867Z,100925.28
2023-02-22T02:22:08.486Z,100926.16
2023-02-22T02:25:18.232Z,100915.53
2023-02-22T02:28:12.316Z,100911.06
2023-02-22T02:31:10.052Z,100911.94
2023-02-22T02:33:45.378Z,100912.78
2023-02-22T02:36:18.937Z,100904.84
2023-02-22T02:38:55.952Z,100902.19
2023-02-22T02:41:28.166Z,100899.53
2023-02-22T02:44:02.919Z,100900.41
2023-02-22T02:46:36.622Z,100894.22
2023-02-22T02:49:12.211Z,100901.28
2023-02-22T02:51:43.074Z,100901.25
2023-02-22T02:54:13.062Z,100896.84
2023-02-22T02:56:42.841Z,100897.72
2023-02-22T02:59:26.133Z,100895.03
2023-02-22T03:02:07.789Z,100882.72
2023-02-22T03:04:49.886Z,100875.66
2023-02-22T03:07:34.440Z,100877.44
2023-02-22T03:10:19.595Z,100872.16
2023-02-22T03:12:58.425Z,100873.00
2023-02-22T03:15:36.383Z,100861.53
2023-02-22T03:18:07.678Z,100866.78
2023-02-22T03:20:44.049Z,100871.16
2023-02-22T03:23:18.295Z,100868.50
2023-02-22T03:25:51.018Z,100871.13
2023-02-22T03:28:22.526Z,100870.19
2023-02-22T03:30:55.434Z,100872.75
2023-02-22T03:33:33.698Z,100878.84
2023-02-22T03:36:10.519Z,100876.06
2023-02-22T03:38:40.823Z,100865.44
2023-02-22T03:41:12.985Z,100867.09
2023-02-22T03:43:44.574Z,100874.06
2023-02-22T03:46:16.379Z,100871.34
2023-02-22T03:48:52.916Z,100866.88
2023-02-22T03:51:23.105Z,100879.13
2023-02-22T03:53:55.579Z,100877.28
2023-02-22T03:56:36.392Z,100878.94
2023-02-22T03:59:06.355Z,100876.22
2023-02-22T04:01:34.351Z,100873.50
2023-02-22T04:04:02.245Z,100873.41
2023-02-22T04:06:32.077Z,100871.53
2023-02-22T04:09:01.311Z,100869.72
2023-02-22T04:11:28.998Z,100871.38
2023-02-22T04:13:57.197Z,100874.84
2023-02-22T04:16:25.070Z,100880.03
2023-02-22T04:18:53.123Z,100880.00
2023-02-22T04:21:20.898Z,100872.09
2023-02-22T04:23:52.094Z,100875.53
2023-02-22T04:26:19.811Z,100879.03
2023-02-22T04:28:52.674Z,100871.09
2023-02-22T04:31:23.922Z,100875.44
2023-02-22T04:33:53.413Z,100873.69
2023-02-22T04:36:27.054Z,100870.16
2023-02-22T04:38:56.094Z,100872.78
2023-02-22T04:41:25.488Z,100868.34
2023-02-22T04:43:53.522Z,100869.16
2023-02-22T04:46:23.525Z,100869.13
2023-02-22T04:48:52.961Z,100864.66
2023-02-22T04:51:23.264Z,100867.22
2023-02-22T04:54:07.794Z,100862.84
2023-02-22T04:56:37.488Z,100877.75
2023-02-22T04:59:06.550Z,100867.22
2023-02-22T05:01:35.595Z,100865.47
2023-02-22T05:04:03.997Z,100873.38
2023-02-22T05:06:31.893Z,100861.00
2023-02-22T05:08:59.552Z,100858.38
2023-02-22T05:11:29.041Z,100868.03
2023-02-22T05:13:56.758Z,100856.59
2023-02-22T05:16:24.783Z,100855.72
2023-02-22T05:18:52.374Z,100861.03
2023-02-22T05:21:20.002Z,100855.78
2023-02-22T05:23:47.670Z,100853.19
2023-02-22T05:26:15.302Z,100858.53
2023-02-22T05:28:44.236Z,100844.47
2023-02-22T05:31:11.925Z,100859.44
2023-02-22T05:33:40.260Z,100847.13
2023-02-22T05:36:09.001Z,100855.13
2023-02-22T05:38:43.162Z,100847.22
2023-02-22T05:41:12.544Z,100849.94
2023-02-22T05:43:40.959Z,100849.97
2023-02-22T05:46:10.163Z,100849.06
2023-02-22T05:48:37.896Z,100852.66
2023-02-22T05:51:06.184Z,100861.47
2023-02-22T05:53:33.975Z,100852.69
2023-02-22T05:56:01.588Z,100858.88
2023-02-22T05:58:29.242Z,100851.88
2023-02-22T06:00:56.834Z,100853.63
2023-02-22T06:03:25.788Z,100854.53
2023-02-22T06:05:53.391Z,100854.56
2023-02-22T06:08:21.058Z,100861.63
2023-02-22T06:10:48.666Z,100859.03
2023-02-22T06:13:16.275Z,100855.53
2023-02-22T06:15:44.016Z,100859.94
2023-02-22T06:18:11.714Z,100866.13
2023-02-22T06:20:41.401Z,100864.38
2023-02-22T06:23:09.160Z,100867.91
2023-02-22T06:25:36.758Z,100862.63
2023-02-22T06:28:05.213Z,100867.06
2023-02-22T06:30:33.037Z,100871.44
2023-02-22T06:33:00.796Z,100870.59
2023-02-22T06:35:28.555Z,100874.13
2023-02-22T06:37:57.693Z,100873.25
2023-02-22T06:40:29.407Z,100868.00
2023-02-22T06:42:58.367Z,100865.34
2023-02-22T06:45:26.165Z,100870.66
2023-02-22T06:47:53.989Z,100880.34
2023-02-22T06:50:24.339Z,100880.38
2023-02-22T06:52:52.437Z,100867.19
2023-02-22T06:55:24.132Z,100865.44
2023-02-22T06:57:52.296Z,100868.09
2023-02-22T07:00:22.123Z,100876.94
2023-02-22T07:02:49.849Z,100866.41
2023-02-22T07:05:19.445Z,100872.63
2023-02-22T07:07:47.743Z,100871.75
2023-02-22T07:10:23.137Z,100876.16
2023-02-22T07:12:53.313Z,100878.84
2023-02-22T07:15:23.580Z,100877.91
2023-02-22T07:17:51.437Z,100882.31
2023-02-22T07:20:20.725Z,100879.72
2023-02-22T07:22:49.083Z,100880.59
2023-02-22T07:25:17.199Z,100881.50
2023-02-22T07:27:45.062Z,100884.13
2023-02-22T07:30:19.856Z,100879.78
2023-02-22T07:32:48.047Z,100890.34
2023-02-22T07:35:17.476Z,100892.13
2023-02-22T07:37:45.687Z,100893.91
2023-02-22T07:40:13.622Z,100893.03
2023-02-22T07:42:55.675Z,100882.50
2023-02-22T07:45:26.195Z,100886.06
2023-02-22T07:47:54.438Z,100881.66
2023-02-22T07:50:23.577Z,100883.47
2023-02-22T07:52:53.046Z,100879.16
2023-02-22T07:55:23.103Z,100882.69
2023-02-22T07:57:53.596Z,100879.19
2023-02-22T08:00:26.110Z,100881.88
2023-02-22T08:02:54.286Z,100882.81
2023-02-22T08:05:25.443Z,100876.72
2023-02-22T08:07:53.237Z,100870.59
2023-02-22T08:10:23.397Z,100876.75
2023-02-22T08:12:52.188Z,100871.53
2023-02-22T08:15:23.654Z,100868.09
2023-02-22T08:17:53.624Z,100864.59
2023-02-22T08:20:22.261Z,100862.88
2023-02-22T08:22:50.310Z,100865.56
2023-02-22T08:25:20.389Z,100870.00
2023-02-22T08:27:48.782Z,100861.25
2023-02-22T08:30:19.579Z,100858.63
2023-02-22T08:32:47.725Z,100852.50
2023-02-22T08:35:18.263Z,100851.72
2023-02-22T08:37:46.292Z,100850.88
2023-02-22T08:40:17.202Z,100848.28
2023-02-22T08:42:44.984Z,100847.47
2023-02-22T08:45:13.425Z,100844.88
2023-02-22T08:47:41.465Z,100836.97
2023-02-22T08:50:10.357Z,100833.50
2023-02-22T08:52:39.485Z,100832.72
2023-02-22T08:55:08.050Z,100833.66
2023-02-22T08:57:35.786Z,100836.38
2023-02-22T09:00:03.936Z,100827.63
2023-02-22T09:02:31.736Z,100832.97
2023-02-22T09:04:59.510Z,100823.38
2023-02-22T09:07:27.579Z,100829.63
2023-02-22T09:09:56.691Z,100828.81
2023-02-22T09:12:24.469Z,100833.28
2023-02-22T09:14:52.265Z,100839.50
2023-02-22T09:17:20.115Z,100830.75
2023-02-22T09:19:47.889Z,100841.34
2023-02-22T09:22:15.585Z,100829.97
2023-02-22T09:24:44.105Z,100829.13
2023-02-22T09:27:13.183Z,100830.09
2023-02-22T09:29:40.908Z,100823.06
2023-02-22T09:32:08.838Z,100827.59
2023-02-22T09:34:36.604Z,100817.97
2023-02-22T09:37:08.721Z,100826.00
2023-02-22T09:39:37.777Z,100828.69
2023-02-22T09:42:12.355Z,100827.84
2023-02-22T09:44:48.179Z,100827.00
2023-02-22T09:47:20.307Z,100813.81
2023-02-22T09:49:58.080Z,100812.09
2023-02-22T09:52:29.615Z,100813.88
2023-02-22T09:55:07.895Z,100813.91
2023-02-22T09:57:40.593Z,100808.63
2023-02-22T10:00:18.719Z,100807.78
2023-02-22T10:02:52.124Z,100814.00
2023-02-22T10:05:26.231Z,100806.03
2023-02-22T10:07:59.314Z,100809.63
2023-02-22T10:10:33.570Z,100807.00
2023-02-22T10:13:14.071Z,100806.13
2023-02-22T10:15:52.253Z,100807.94
2023-02-22T10:19:07.983Z,100791.13
2023-02-22T10:21:47.512Z,100789.38
2023-02-22T10:24:31.685Z,100789.38
2023-02-22T10:27:00.693Z,100792.94
2023-02-22T10:29:33.686Z,100785.84
2023-02-22T10:32:05.469Z,100781.44
2023-02-22T10:34:38.939Z,100778.78
2023-02-22T10:37:21.191Z,100765.53
2023-02-22T10:39:52.908Z,100768.16
2023-02-22T10:42:26.675Z,100767.28
2023-02-22T10:44:54.475Z,100769.06
2023-02-22T10:47:24.967Z,100768.16
2023-02-22T10:49:56.581Z,100766.31
2023-02-22T10:52:28.132Z,100761.88
2023-02-22T10:55:13.815Z,100754.81
2023-02-22T10:57:45.364Z,100756.56
2023-02-22T11:00:20.620Z,100760.09
2023-02-22T11:02:55.016Z,100750.31
2023-02-22T11:05:31.749Z,100747.63
2023-02-22T11:08:15.940Z,100757.34
2023-02-22T11:10:44.539Z,100745.78
2023-02-22T11:13:19.950Z,100747.53
2023-02-22T11:15:48.053Z,100740.38
2023-02-22T11:18:26.402Z,100740.31
2023-02-22T11:21:03.124Z,100745.59
2023-02-22T11:23:31.189Z,100726.03
2023-02-22T11:26:05.951Z,100742.78
2023-02-22T11:28:34.511Z,100735.59
2023-02-22T11:31:14.574Z,100735.50
2023-02-22T11:33:52.508Z,100734.53
2023-02-22T11:36:33.385Z,100723.88
2023-02-22T11:39:01.155Z,100723.03
2023-02-22T11:41:29.966Z,100723.88
2023-02-22T11:44:15.050Z,100717.63
2023-02-22T11:46:44.756Z,100721.19
2023-02-22T11:49:17.337Z,100714.06
2023-02-22T11:52:01.094Z,100724.72
2023-02-22T11:54:47.134Z,100715.81
2023-02-22T11:57:26.405Z,100711.38
2023-02-22T12:00:16.719Z,100714.88
2023-02-22T12:03:08.395Z,100712.19
2023-02-22T12:05:59.608Z,100706.81
2023-02-22T12:08:38.003Z,100699.78
2023-02-22T12:11:13.404Z,100704.16
2023-02-22T12:13:58.783Z,100703.25
2023-02-22T12:16:39.046Z,100695.97
2023-02-22T12:19:16.271Z,100699.44
2023-02-22T12:21:53.872Z,100703.81
2023-02-22T12:24:24.968Z,100693.94
2023-02-22T12:26:58.751Z,100693.72
2023-02-22T12:29:33.207Z,100689.06
2023-02-22T12:32:06.095Z,100700.47
2023-02-22T12:34:41.242Z,100701.31
2023-02-22T12:37:17.436Z,100689.75
2023-02-22T12:39:54.119Z,100692.41
2023-02-22T12:42:29.292Z,100691.50
2023-02-22T12:45:02.015Z,100698.53
2023-02-22T12:47:36.991Z,100701.13
2023-02-22T12:50:15.841Z,100688.63
2023-02-22T12:52:51.079Z,100697.47
2023-02-22T12:55:25.013Z,100694.75
2023-02-22T12:57:59.683Z,100696.50
2023-02-22T13:00:31.844Z,100691.19
2023-02-22T13:03:02.591Z,100694.69
2023-02-22T13:05:35.480Z,100685.75
2023-02-22T13:08:21.892Z,100675.91
2023-02-22T13:11:05.081Z,100680.38
2023-02-22T13:13:41.591Z,100681.31
2023-02-22T13:16:21.836Z,100670.66
2023-02-22T13:18:56.924Z,100664.38
2023-02-22T13:21:32.150Z,100666.19
2023-02-22T13:24:12.518Z,100673.34
2023-02-22T13:26:44.650Z,100666.25
2023-02-22T13:29:18.104Z,100665.44
2023-02-22T13:32:09.787Z,100669.06
2023-02-22T13:34:59.397Z,100653.88
2023-02-22T13:37:58.512Z,100657.38
2023-02-22T13:40:56.252Z,100651.19
2023-02-22T13:43:49.224Z,100655.59
2023-02-22T13:46:33.767Z,100649.38
2023-02-22T13:49:18.469Z,100647.59
2023-02-22T13:51:51.957Z,100647.59
2023-02-22T13:54:25.229Z,100649.28
2023-02-22T13:56:57.249Z,100650.22
2023-02-22T13:59:28.712Z,100650.22
2023-02-22T14:01:57.160Z,100644.09
2023-02-22T14:04:40.966Z,100646.84
2023-02-22T14:07:51.156Z,100649.59
2023-02-22T14:10:47.737Z,100635.47
2023-02-22T14:13:18.200Z,100633.75
2023-02-22T14:16:20.117Z,100625.81
2023-02-22T14:18:51.096Z,100616.97
2023-02-22T14:21:21.220Z,100624.16
2023-02-22T14:23:50.101Z,100612.72
2023-02-22T14:26:24.279Z,100623.53
2023-02-22T14:28:56.987Z,100613.00
2023-02-22T14:31:35.965Z,100614.84
2023-02-22T14:34:08.378Z,100614.00
2023-02-22T14:36:42.693Z,100610.53
2023-02-22T14:39:25.385Z,100612.38
2023-02-22T14:41:58.353Z,100600.03
2023-02-22T14:44:36.925Z,100605.41
2023-02-22T14:47:08.382Z,100591.25
2023-02-22T14:49:41.882Z,100594.84
2023-02-22T14:52:20.700Z,100599.34
2023-02-22T14:54:59.343Z,100596.75
2023-02-22T14:57:39.052Z,100600.38
2023-02-22T15:00:22.570Z,100595.97
2023-02-22T15:02:52.565Z,100594.25
2023-02-22T15:05:21.160Z,100593.41
2023-02-22T15:07:54.286Z,100588.13
2023-02-22T15:10:26.575Z,100595.31
2023-02-22T15:13:09.073Z,100597.13
2023-02-22T15:15:40.761Z,100601.63
2023-02-22T15:18:21.969Z,100597.25
2023-02-22T15:20:55.979Z,100599.03
2023-02-22T15:23:26.326Z,100600.84
2023-02-22T15:25:54.601Z,100596.44
2023-02-22T15:28:24.546Z,100588.53
2023-02-22T15:31:24.763Z,100593.03
2023-02-22T15:33:54.756Z,100594.84
2023-02-22T15:36:26.563Z,100597.53
2023-02-22T15:38:56.767Z,100588.72
2023-02-22T15:41:32.784Z,100590.53
2023-02-22T15:44:17.727Z,100589.69
2023-02-22T15:46:54.364Z,100580.00
2023-02-22T15:49:24.388Z,100583.59
2023-02-22T15:52:04.828Z,100584.50
2023-02-22T15:54:39.931Z,100583.66
2023-02-22T15:57:07.640Z,100575.75
2023-02-22T15:59:44.803Z,100573.13
2023-02-22T16:02:35.659Z,100577.59
2023-02-22T16:05:08.120Z,100578.53
2023-02-22T16:07:41.971Z,100576.81
2023-02-22T16:10:21.528Z,100578.63
2023-02-22T16:12:49.450Z,100583.09
2023-02-22T16:15:19.627Z,100580.47
2023-02-22T16:18:01.493Z,100578.72
2023-02-22T16:20:36.188Z,100576.97
2023-02-22T16:23:24.575Z,100580.56
2023-02-22T16:26:07.763Z,100584.13
2023-02-22T16:28:35.992Z,100581.47
2023-02-22T16:31:04.859Z,100582.38
2023-02-22T16:33:34.514Z,100579.72
2023-02-22T16:36:14.733Z,100572.69
2023-02-22T16:38:44.479Z,100577.13
2023-02-22T16:41:12.207Z,100578.03
2023-02-22T16:43:40.231Z,100578.03
2023-02-22T16:46:07.933Z,100577.16
2023-02-22T16:48:38.486Z,100579.81
2023-02-22T16:51:17.851Z,100574.53
2023-02-22T16:53:45.996Z,100587.78
2023-02-22T16:56:17.316Z,100586.91
2023-02-22T16:58:47.707Z,100586.00
2023-02-22T17:01:15.357Z,100571.88
2023-02-22T17:03:44.672Z,100571.00
2023-02-22T17:06:12.836Z,100577.19
2023-02-22T17:08:41.689Z,100574.53
2023-02-22T17:11:12.112Z,100577.22
2023-02-22T17:13:41.429Z,100576.31
2023-02-22T17:16:15.393Z,100571.88
2023-02-22T17:18:45.991Z,100570.13
2023-02-22T17:21:14.134Z,100573.63
2023-02-22T17:23:43.880Z,100579.81
2023-02-22T17:26:13.648Z,100572.75
2023-02-22T17:28:43.630Z,100582.47
2023-02-22T17:31:19.617Z,100576.28
2023-02-22T17:33:48.798Z,100582.44
2023-02-22T17:36:16.684Z,100578.91
2023-02-22T17:38:44.568Z,100570.06
2023-02-22T17:41:12.202Z,100578.00
2023-02-22T17:43:39.934Z,100566.53
2023-02-22T17:46:08.927Z,100578.00
2023-02-22T17:48:36.689Z,100578.00
2023-02-22T17:51:12.115Z,100577.97
2023-02-22T17:53:40.183Z,100584.13
2023-02-22T17:56:08.448Z,100581.50
2023-02-22T17:58:36.379Z,100577.97
2023-02-22T18:01:04.784Z,100577.03
2023-02-22T18:03:33.042Z,100574.38
2023-02-22T18:06:02.157Z,100573.50
2023-02-22T18:08:32.204Z,100573.50
2023-02-22T18:11:05.168Z,100579.66
2023-02-22T18:13:32.817Z,100571.72
2023-02-22T18:16:00.695Z,100570.84
2023-02-22T18:18:28.417Z,100570.78
2023-02-22T18:20:59.691Z,100566.34
2023-02-22T18:23:29.025Z,100567.25
2023-02-22T18:26:22.680Z,100567.25
2023-02-22T18:28:49.117Z,100573.41
2023-02-22T18:31:18.442Z,100567.22
2023-02-22T18:33:47.621Z,100573.41
2023-02-22T18:36:16.274Z,100564.53
2023-02-22T18:38:44.787Z,100560.16
2023-02-22T18:41:15.672Z,100562.78
2023-02-22T18:43:43.538Z,100559.25
2023-02-22T18:46:12.899Z,100565.41
2023-02-22T18:48:41.301Z,100567.16
2023-02-22T18:51:11.294Z,100561.84
2023-02-22T18:53:40.852Z,100560.97
2023-02-22T18:56:10.481Z,100564.50
2023-02-22T18:58:43.248Z,100560.94
2023-02-22T19:01:17.361Z,100562.69
2023-02-22T19:03:47.131Z,100564.44
2023-02-22T19:06:15.791Z,100569.69
2023-02-22T19:08:44.901Z,100565.28
2023-02-22T19:11:17.825Z,100571.44
2023-02-22T19:13:47.867Z,100567.00
2023-02-22T19:16:19.742Z,100566.13
2023-02-22T19:18:48.674Z,100560.81
2023-02-22T19:21:16.678Z,100569.59
2023-02-22T19:23:46.320Z,100557.28
2023-02-22T19:26:18.571Z,100567.84
2023-02-22T19:28:49.155Z,100558.09
2023-02-22T19:31:18.823Z,100558.06
2023-02-22T19:33:51.422Z,100559.84
2023-02-22T19:36:24.057Z,100562.47
2023-02-22T19:38:52.892Z,100561.59
2023-02-22T19:41:23.452Z,100558.91
2023-02-22T19:43:54.621Z,100547.44
2023-02-22T19:46:25.307Z,100555.34
2023-02-22T19:48:55.380Z,100552.69
2023-02-22T19:51:25.997Z,100558.84
2023-02-22T19:53:55.433Z,100555.31
2023-02-22T19:56:27.457Z,100558.78
2023-02-22T19:58:58.909Z,100553.50
2023-02-22T20:01:29.842Z,100568.44
2023-02-22T20:04:00.036Z,100553.47
2023-02-22T20:06:29.806Z,100560.50
2023-02-22T20:08:58.275Z,100566.63
2023-02-22T20:11:26.257Z,100558.66
2023-02-22T20:13:56.459Z,100564.81
2023-02-22T20:16:24.780Z,100567.44
2023-02-22T20:18:52.669Z,100567.41
2023-02-22T20:21:22.927Z,100569.16
2023-02-22T20:23:50.817Z,100556.81
2023-02-22T20:26:22.451Z,100562.94
2023-02-22T20:28:50.726Z,100557.63
2023-02-22T20:31:21.002Z,100556.69
2023-02-22T20:33:53.601Z,100557.59
2023-02-22T20:36:23.113Z,100557.56
2023-02-22T20:38:54.757Z,100554.88
2023-02-22T20:41:24.917Z,100557.47
2023-02-22T20:43:53.552Z,100547.78
2023-02-22T20:46:23.610Z,100563.59
2023-02-22T20:48:55.180Z,100555.66
2023-02-22T20:51:22.990Z,100555.59
2023-02-22T20:53:50.658Z,100550.31
2023-02-22T20:56:20.862Z,100552.06
2023-02-22T20:58:48.521Z,100552.91
2023-02-22T21:01:19.470Z,100549.38
2023-02-22T21:03:49.717Z,100559.00
2023-02-22T21:06:19.521Z,100551.09
2023-02-22T21:08:51.403Z,100557.22
2023-02-22T21:11:19.906Z,100559.84
2023-02-22T21:13:47.953Z,100561.56
2023-02-22T21:16:19.021Z,100556.25
2023-02-22T21:18:51.115Z,100558.88
2023-02-22T21:21:18.965Z,100558.84
2023-02-22T21:23:50.649Z,100562.38
2023-02-22T21:26:23.544Z,100562.38
2023-02-22T21:28:51.827Z,100547.38
2023-02-22T21:31:21.598Z,100554.41
2023-02-22T21:33:52.101Z,100550.00
2023-02-22T21:36:20.314Z,100549.09
2023-02-22T21:38:53.279Z,100545.56
2023-02-22T21:41:23.698Z,100549.09
2023-02-22T21:43:52.676Z,100549.06
2023-02-22T21:46:20.786Z,100543.78
2023-02-22T21:48:49.288Z,100547.28
2023-02-22T21:51:20.668Z,100546.38
2023-02-22T21:53:52.094Z,100549.00
2023-02-22T21:56:24.285Z,100542.81
2023-02-22T21:58:59.040Z,100544.53
2023-02-22T22:01:28.490Z,100529.56
2023-02-22T22:03:59.645Z,100538.28
2023-02-22T22:06:30.412Z,100538.28
2023-02-22T22:08:59.875Z,100532.97
2023-02-22T22:11:27.747Z,100532.06
2023-02-22T22:13:57.480Z,100539.06
2023-02-22T22:16:27.261Z,100534.63
2023-02-22T22:18:55.802Z,100538.09
2023-02-22T22:21:25.073Z,100529.28
2023-02-22T22:23:56.190Z,100534.53
2023-02-22T22:26:25.476Z,100537.09
2023-02-22T22:28:55.843Z,100528.28
2023-02-22T22:31:25.898Z,100528.22
2023-02-22T22:33:54.113Z,100528.22
2023-02-22T22:36:22.638Z,100532.59
2023-02-22T22:38:52.646Z,100524.63
2023-02-22T22:41:21.916Z,100521.13
2023-02-22T22:43:52.398Z,100534.31
2023-02-22T22:46:20.073Z,100529.00
2023-02-22T22:48:47.909Z,100521.09
2023-02-22T22:51:19.759Z,100520.16
2023-02-22T22:53:49.458Z,100521.91
2023-02-22T22:56:20.227Z,100517.53
2023-02-22T22:58:51.042Z,100515.72
2023-02-22T23:01:26.706Z,100511.31
2023-02-22T23:03:57.829Z,100512.19
2023-02-22T23:06:30.829Z,100511.28
2023-02-22T23:09:00.860Z,100511.31
2023-02-22T23:11:30.214Z,100519.22
2023-02-22T23:14:00.219Z,100513.03
2023-02-22T23:16:28.745Z,100513.00
2023-02-22T23:18:56.345Z,100507.72
2023-02-22T23:21:24.507Z,100509.47
2023-02-22T23:23:55.446Z,100508.59
2023-02-22T23:26:26.518Z,100512.06
2023-02-22T23:28:56.954Z,100508.53
2023-02-22T23:31:28.611Z,100505.91
2023-02-22T23:33:58.650Z,100513.78
2023-02-22T23:36:27.472Z,100511.16
2023-02-22T23:38:55.900Z,100512.91
2023-02-22T23:41:25.198Z,100514.63
2023-02-22T23:43:52.928Z,100509.34
2023-02-22T23:46:20.570Z,100506.66
2023-02-22T23:48:53.203Z,100512.78
2023-02-22T23:51:25.381Z,100511.91
2023-02-22T23:53:55.752Z,100508.38
2023-02-22T23:56:26.491Z,100511.00
2023-02-22T23:58:57.374Z,100515.38
